sensor_id;sensor_type;location;lat;lon;timestamp;P1;durP1;ratioP1;P2;durP2;ratioP2
36787;SDS011;22738;45.560;9.434;2022-07-23T00:01:05;12.45;;;8.32;;
36787;SDS011;22738;45.560;9.434;2022-07-23T00:07:46;8.77;;;7.88;;
36787;SDS011;22738;45.560;9.434;2022-07-23T00:14:27;12.15;;;8.25;;
36787;SDS011;22738;45.560;9.434;2022-07-23T00:21:09;12.38;;;7.72;;
36787;SDS011;22738;45.560;9.434;2022-07-23T00:27:50;12.18;;;7.47;;
36787;SDS011;22738;45.560;9.434;2022-07-23T00:34:31;11.95;;;7.45;;
36787;SDS011;22738;45.560;9.434;2022-07-23T00:41:12;9.60;;;7.07;;
36787;SDS011;22738;45.560;9.434;2022-07-23T00:47:53;8.50;;;7.05;;
36787;SDS011;22738;45.560;9.434;2022-07-23T00:54:34;12.07;;;7.57;;
36787;SDS011;22738;45.560;9.434;2022-07-23T01:01:15;12.20;;;7.55;;
36787;SDS011;22738;45.560;9.434;2022-07-23T01:07:56;10.15;;;7.68;;
36787;SDS011;22738;45.560;9.434;2022-07-23T01:14:38;8.77;;;7.53;;
36787;SDS011;22738;45.560;9.434;2022-07-23T01:21:19;14.02;;;7.75;;
36787;SDS011;22738;45.560;9.434;2022-07-23T01:28:01;9.82;;;7.43;;
36787;SDS011;22738;45.560;9.434;2022-07-23T01:34:42;11.38;;;7.75;;
36787;SDS011;22738;45.560;9.434;2022-07-23T01:41:23;11.90;;;7.82;;
36787;SDS011;22738;45.560;9.434;2022-07-23T01:48:05;12.85;;;8.20;;
36787;SDS011;22738;45.560;9.434;2022-07-23T01:54:47;11.52;;;8.13;;
36787;SDS011;22738;45.560;9.434;2022-07-23T02:01:28;18.33;;;8.40;;
36787;SDS011;22738;45.560;9.434;2022-07-23T02:08:09;12.27;;;7.75;;
36787;SDS011;22738;45.560;9.434;2022-07-23T02:14:51;11.60;;;7.63;;
36787;SDS011;22738;45.560;9.434;2022-07-23T02:21:32;11.23;;;8.05;;
36787;SDS011;22738;45.560;9.434;2022-07-23T02:28:13;15.48;;;8.43;;
36787;SDS011;22738;45.560;9.434;2022-07-23T02:34:56;10.77;;;8.90;;
36787;SDS011;22738;45.560;9.434;2022-07-23T02:41:37;9.90;;;7.32;;
36787;SDS011;22738;45.560;9.434;2022-07-23T02:48:18;11.40;;;7.88;;
36787;SDS011;22738;45.560;9.434;2022-07-23T03:01:43;9.98;;;7.90;;
36787;SDS011;22738;45.560;9.434;2022-07-23T03:08:24;14.52;;;8.00;;
36787;SDS011;22738;45.560;9.434;2022-07-23T03:15:07;13.15;;;8.80;;
36787;SDS011;22738;45.560;9.434;2022-07-23T03:21:50;10.35;;;8.05;;
36787;SDS011;22738;45.560;9.434;2022-07-23T03:28:31;12.70;;;8.25;;
36787;SDS011;22738;45.560;9.434;2022-07-23T03:35:12;12.10;;;8.57;;
36787;SDS011;22738;45.560;9.434;2022-07-23T03:42:02;12.60;;;8.23;;
36787;SDS011;22738;45.560;9.434;2022-07-23T03:48:44;12.90;;;8.30;;
36787;SDS011;22738;45.560;9.434;2022-07-23T03:55:25;20.33;;;15.15;;
36787;SDS011;22738;45.560;9.434;2022-07-23T04:02:06;23.17;;;15.27;;
36787;SDS011;22738;45.560;9.434;2022-07-23T04:08:48;20.85;;;14.68;;
36787;SDS011;22738;45.560;9.434;2022-07-23T04:15:29;23.98;;;15.77;;
36787;SDS011;22738;45.560;9.434;2022-07-23T04:22:10;22.23;;;15.23;;
36787;SDS011;22738;45.560;9.434;2022-07-23T04:28:52;29.02;;;19.17;;
36787;SDS011;22738;45.560;9.434;2022-07-23T04:35:34;21.52;;;14.48;;
36787;SDS011;22738;45.560;9.434;2022-07-23T04:42:25;15.07;;;8.68;;
36787;SDS011;22738;45.560;9.434;2022-07-23T04:49:07;9.20;;;6.47;;
36787;SDS011;22738;45.560;9.434;2022-07-23T04:55:48;8.60;;;4.30;;
36787;SDS011;22738;45.560;9.434;2022-07-23T05:02:29;7.15;;;4.20;;
36787;SDS011;22738;45.560;9.434;2022-07-23T05:09:10;6.57;;;3.58;;
36787;SDS011;22738;45.560;9.434;2022-07-23T05:15:51;4.70;;;3.72;;
36787;SDS011;22738;45.560;9.434;2022-07-23T05:22:32;6.95;;;4.32;;
36787;SDS011;22738;45.560;9.434;2022-07-23T05:29:14;9.50;;;4.82;;
36787;SDS011;22738;45.560;9.434;2022-07-23T05:35:59;6.45;;;4.00;;
36787;SDS011;22738;45.560;9.434;2022-07-23T05:42:45;6.75;;;3.88;;
36787;SDS011;22738;45.560;9.434;2022-07-23T05:49:27;11.32;;;3.80;;
36787;SDS011;22738;45.560;9.434;2022-07-23T05:56:27;6.25;;;3.63;;
36787;SDS011;22738;45.560;9.434;2022-07-23T06:03:08;6.78;;;3.63;;
36787;SDS011;22738;45.560;9.434;2022-07-23T06:09:49;9.25;;;3.38;;
36787;SDS011;22738;45.560;9.434;2022-07-23T06:16:30;9.40;;;3.10;;
36787;SDS011;22738;45.560;9.434;2022-07-23T06:23:11;4.35;;;2.83;;
36787;SDS011;22738;45.560;9.434;2022-07-23T06:29:53;5.60;;;3.17;;
36787;SDS011;22738;45.560;9.434;2022-07-23T06:36:34;9.70;;;3.60;;
36787;SDS011;22738;45.560;9.434;2022-07-23T06:43:15;5.55;;;3.45;;
36787;SDS011;22738;45.560;9.434;2022-07-23T06:49:59;7.75;;;3.13;;
36787;SDS011;22738;45.560;9.434;2022-07-23T06:56:40;4.65;;;3.40;;
36787;SDS011;22738;45.560;9.434;2022-07-23T07:03:21;5.67;;;2.83;;
36787;SDS011;22738;45.560;9.434;2022-07-23T07:10:02;8.30;;;3.67;;
36787;SDS011;22738;45.560;9.434;2022-07-23T07:16:44;8.05;;;2.88;;
36787;SDS011;22738;45.560;9.434;2022-07-23T07:23:25;12.68;;;3.17;;
36787;SDS011;22738;45.560;9.434;2022-07-23T07:30:07;6.45;;;3.10;;
36787;SDS011;22738;45.560;9.434;2022-07-23T07:36:48;14.27;;;3.57;;
36787;SDS011;22738;45.560;9.434;2022-07-23T07:43:30;11.30;;;3.25;;
36787;SDS011;22738;45.560;9.434;2022-07-23T07:50:11;7.95;;;3.35;;
36787;SDS011;22738;45.560;9.434;2022-07-23T07:56:52;6.30;;;3.67;;
36787;SDS011;22738;45.560;9.434;2022-07-23T08:03:33;6.97;;;3.55;;
36787;SDS011;22738;45.560;9.434;2022-07-23T08:10:16;9.60;;;4.45;;
36787;SDS011;22738;45.560;9.434;2022-07-23T08:16:58;10.15;;;4.05;;
36787;SDS011;22738;45.560;9.434;2022-07-23T08:23:39;6.90;;;4.47;;
36787;SDS011;22738;45.560;9.434;2022-07-23T08:30:20;9.68;;;5.30;;
36787;SDS011;22738;45.560;9.434;2022-07-23T08:37:01;8.90;;;5.47;;
36787;SDS011;22738;45.560;9.434;2022-07-23T08:43:42;19.83;;;6.57;;
36787;SDS011;22738;45.560;9.434;2022-07-23T08:50:25;10.90;;;6.05;;
36787;SDS011;22738;45.560;9.434;2022-07-23T08:57:07;8.63;;;5.47;;
36787;SDS011;22738;45.560;9.434;2022-07-23T09:03:48;11.95;;;6.43;;
36787;SDS011;22738;45.560;9.434;2022-07-23T09:10:29;8.57;;;5.97;;
36787;SDS011;22738;45.560;9.434;2022-07-23T09:30:42;11.02;;;6.72;;
36787;SDS011;22738;45.560;9.434;2022-07-23T09:37:29;12.07;;;5.95;;
36787;SDS011;22738;45.560;9.434;2022-07-23T09:44:15;7.97;;;6.35;;
36787;SDS011;22738;45.560;9.434;2022-07-23T09:51:02;10.45;;;6.00;;
36787;SDS011;22738;45.560;9.434;2022-07-23T09:57:45;9.52;;;6.38;;
36787;SDS011;22738;45.560;9.434;2022-07-23T10:04:32;10.13;;;6.22;;
36787;SDS011;22738;45.560;9.434;2022-07-23T10:11:27;11.70;;;6.65;;
36787;SDS011;22738;45.560;9.434;2022-07-23T10:18:20;11.38;;;6.55;;
36787;SDS011;22738;45.560;9.434;2022-07-23T10:32:31;15.02;;;8.10;;
36787;SDS011;22738;45.560;9.434;2022-07-23T10:39:29;9.88;;;6.95;;
36787;SDS011;22738;45.560;9.434;2022-07-23T10:46:31;11.63;;;7.22;;
36787;SDS011;22738;45.560;9.434;2022-07-23T10:53:25;10.25;;;5.82;;
36787;SDS011;22738;45.560;9.434;2022-07-23T11:13:31;10.60;;;7.85;;
36787;SDS011;22738;45.560;9.434;2022-07-23T11:20:26;10.68;;;8.10;;
36787;SDS011;22738;45.560;9.434;2022-07-23T11:27:08;15.02;;;7.90;;
36787;SDS011;22738;45.560;9.434;2022-07-23T11:34:21;16.02;;;8.10;;
36787;SDS011;22738;45.560;9.434;2022-07-23T11:41:23;10.55;;;7.85;;
36787;SDS011;22738;45.560;9.434;2022-07-23T11:48:04;13.80;;;7.53;;
36787;SDS011;22738;45.560;9.434;2022-07-23T11:54:51;10.57;;;7.95;;
36787;SDS011;22738;45.560;9.434;2022-07-23T12:02:02;9.55;;;7.68;;
36787;SDS011;22738;45.560;9.434;2022-07-23T12:08:45;15.60;;;7.90;;
36787;SDS011;22738;45.560;9.434;2022-07-23T12:15:30;10.75;;;7.88;;
36787;SDS011;22738;45.560;9.434;2022-07-23T12:22:12;12.00;;;7.20;;
36787;SDS011;22738;45.560;9.434;2022-07-23T12:28:56;14.93;;;8.25;;
36787;SDS011;22738;45.560;9.434;2022-07-23T12:35:38;11.10;;;7.13;;
36787;SDS011;22738;45.560;9.434;2022-07-23T12:42:25;12.07;;;7.57;;
36787;SDS011;22738;45.560;9.434;2022-07-23T12:49:06;12.60;;;8.48;;
36787;SDS011;22738;45.560;9.434;2022-07-23T12:55:47;11.63;;;7.13;;
36787;SDS011;22738;45.560;9.434;2022-07-23T13:02:44;11.65;;;7.93;;
36787;SDS011;22738;45.560;9.434;2022-07-23T13:09:29;15.77;;;7.70;;
36787;SDS011;22738;45.560;9.434;2022-07-23T13:16:12;11.88;;;7.50;;
36787;SDS011;22738;45.560;9.434;2022-07-23T13:22:53;12.45;;;7.22;;
36787;SDS011;22738;45.560;9.434;2022-07-23T13:29:34;10.57;;;7.43;;
36787;SDS011;22738;45.560;9.434;2022-07-23T13:36:15;11.95;;;7.25;;
36787;SDS011;22738;45.560;9.434;2022-07-23T13:42:56;9.73;;;7.53;;
36787;SDS011;22738;45.560;9.434;2022-07-23T13:56:19;11.85;;;7.88;;
36787;SDS011;22738;45.560;9.434;2022-07-23T14:03:01;9.73;;;7.30;;
36787;SDS011;22738;45.560;9.434;2022-07-23T14:09:42;11.60;;;9.07;;
36787;SDS011;22738;45.560;9.434;2022-07-23T14:16:23;18.38;;;9.27;;
36787;SDS011;22738;45.560;9.434;2022-07-23T14:23:04;12.45;;;8.43;;
36787;SDS011;22738;45.560;9.434;2022-07-23T14:29:45;11.90;;;8.90;;
36787;SDS011;22738;45.560;9.434;2022-07-23T14:36:26;12.60;;;8.88;;
36787;SDS011;22738;45.560;9.434;2022-07-23T14:43:08;11.10;;;9.10;;
36787;SDS011;22738;45.560;9.434;2022-07-23T14:49:49;13.00;;;10.02;;
36787;SDS011;22738;45.560;9.434;2022-07-23T14:56:30;11.73;;;8.93;;
36787;SDS011;22738;45.560;9.434;2022-07-23T15:03:11;15.85;;;9.68;;
36787;SDS011;22738;45.560;9.434;2022-07-23T15:09:52;10.90;;;9.10;;
36787;SDS011;22738;45.560;9.434;2022-07-23T15:16:34;15.43;;;10.35;;
36787;SDS011;22738;45.560;9.434;2022-07-23T15:23:15;11.93;;;8.40;;
36787;SDS011;22738;45.560;9.434;2022-07-23T15:29:56;13.60;;;8.23;;
36787;SDS011;22738;45.560;9.434;2022-07-23T15:36:37;11.80;;;7.45;;
36787;SDS011;22738;45.560;9.434;2022-07-23T15:43:18;11.70;;;7.93;;
36787;SDS011;22738;45.560;9.434;2022-07-23T15:50:00;11.30;;;7.78;;
36787;SDS011;22738;45.560;9.434;2022-07-23T15:56:41;10.35;;;8.40;;
36787;SDS011;22738;45.560;9.434;2022-07-23T16:03:23;13.87;;;9.03;;
36787;SDS011;22738;45.560;9.434;2022-07-23T16:10:04;11.30;;;8.32;;
36787;SDS011;22738;45.560;9.434;2022-07-23T16:16:46;12.82;;;8.15;;
36787;SDS011;22738;45.560;9.434;2022-07-23T16:23:27;14.45;;;8.45;;
36787;SDS011;22738;45.560;9.434;2022-07-23T16:30:09;11.43;;;8.75;;
36787;SDS011;22738;45.560;9.434;2022-07-23T16:36:52;12.20;;;8.48;;
36787;SDS011;22738;45.560;9.434;2022-07-23T16:43:33;10.93;;;8.30;;
36787;SDS011;22738;45.560;9.434;2022-07-23T16:50:14;11.30;;;8.53;;
36787;SDS011;22738;45.560;9.434;2022-07-23T16:56:57;10.43;;;8.43;;
36787;SDS011;22738;45.560;9.434;2022-07-23T17:03:38;13.35;;;8.27;;
36787;SDS011;22738;45.560;9.434;2022-07-23T17:10:20;11.82;;;8.00;;
36787;SDS011;22738;45.560;9.434;2022-07-23T17:17:02;11.80;;;7.85;;
36787;SDS011;22738;45.560;9.434;2022-07-23T17:23:43;10.52;;;9.38;;
36787;SDS011;22738;45.560;9.434;2022-07-23T17:30:24;10.75;;;8.52;;
36787;SDS011;22738;45.560;9.434;2022-07-23T17:37:05;13.70;;;9.48;;
36787;SDS011;22738;45.560;9.434;2022-07-23T17:43:46;11.93;;;8.98;;
36787;SDS011;22738;45.560;9.434;2022-07-23T17:50:27;11.55;;;9.27;;
36787;SDS011;22738;45.560;9.434;2022-07-23T17:57:08;10.55;;;8.95;;
36787;SDS011;22738;45.560;9.434;2022-07-23T18:03:49;12.75;;;9.18;;
36787;SDS011;22738;45.560;9.434;2022-07-23T18:10:31;12.95;;;9.18;;
36787;SDS011;22738;45.560;9.434;2022-07-23T18:17:13;10.17;;;8.57;;
36787;SDS011;22738;45.560;9.434;2022-07-23T18:23:54;14.13;;;8.98;;
36787;SDS011;22738;45.560;9.434;2022-07-23T18:30:35;15.88;;;8.98;;
36787;SDS011;22738;45.560;9.434;2022-07-23T18:37:17;12.55;;;8.30;;
36787;SDS011;22738;45.560;9.434;2022-07-23T18:43:58;10.82;;;7.85;;
36787;SDS011;22738;45.560;9.434;2022-07-23T18:50:39;9.95;;;8.57;;
36787;SDS011;22738;45.560;9.434;2022-07-23T18:57:21;12.03;;;7.90;;
36787;SDS011;22738;45.560;9.434;2022-07-23T19:04:06;10.73;;;7.63;;
36787;SDS011;22738;45.560;9.434;2022-07-23T19:10:47;11.10;;;7.40;;
36787;SDS011;22738;45.560;9.434;2022-07-23T19:17:28;12.73;;;7.18;;
36787;SDS011;22738;45.560;9.434;2022-07-23T19:24:13;20.10;;;8.20;;
36787;SDS011;22738;45.560;9.434;2022-07-23T19:31:04;14.85;;;8.13;;
36787;SDS011;22738;45.560;9.434;2022-07-23T19:37:45;10.00;;;7.25;;
36787;SDS011;22738;45.560;9.434;2022-07-23T19:44:26;11.27;;;7.53;;
36787;SDS011;22738;45.560;9.434;2022-07-23T19:51:08;9.80;;;7.82;;
36787;SDS011;22738;45.560;9.434;2022-07-23T19:57:49;16.67;;;7.50;;
36787;SDS011;22738;45.560;9.434;2022-07-23T20:04:30;11.05;;;7.25;;
36787;SDS011;22738;45.560;9.434;2022-07-23T20:11:11;13.88;;;8.10;;
36787;SDS011;22738;45.560;9.434;2022-07-23T20:17:52;9.50;;;6.10;;
36787;SDS011;22738;45.560;9.434;2022-07-23T20:24:33;10.55;;;6.80;;
36787;SDS011;22738;45.560;9.434;2022-07-23T20:31:14;12.95;;;6.68;;
36787;SDS011;22738;45.560;9.434;2022-07-23T20:37:55;14.85;;;6.72;;
36787;SDS011;22738;45.560;9.434;2022-07-23T20:44:36;8.70;;;5.93;;
36787;SDS011;22738;45.560;9.434;2022-07-23T20:51:18;11.30;;;6.20;;
36787;SDS011;22738;45.560;9.434;2022-07-23T20:57:59;7.80;;;5.75;;
36787;SDS011;22738;45.560;9.434;2022-07-23T21:04:42;8.98;;;5.68;;
36787;SDS011;22738;45.560;9.434;2022-07-23T21:11:23;11.80;;;6.32;;
36787;SDS011;22738;45.560;9.434;2022-07-23T21:18:04;8.65;;;6.32;;
36787;SDS011;22738;45.560;9.434;2022-07-23T21:24:46;9.07;;;5.78;;
36787;SDS011;22738;45.560;9.434;2022-07-23T21:31:27;10.90;;;6.25;;
36787;SDS011;22738;45.560;9.434;2022-07-23T21:38:08;13.00;;;5.90;;
36787;SDS011;22738;45.560;9.434;2022-07-23T21:44:50;11.32;;;5.65;;
36787;SDS011;22738;45.560;9.434;2022-07-23T21:51:31;10.02;;;5.93;;
36787;SDS011;22738;45.560;9.434;2022-07-23T21:58:12;10.73;;;6.25;;
36787;SDS011;22738;45.560;9.434;2022-07-23T22:04:53;8.82;;;6.45;;
36787;SDS011;22738;45.560;9.434;2022-07-23T22:11:34;8.93;;;6.65;;
36787;SDS011;22738;45.560;9.434;2022-07-23T22:18:15;13.38;;;7.18;;
36787;SDS011;22738;45.560;9.434;2022-07-23T22:24:56;14.48;;;6.28;;
36787;SDS011;22738;45.560;9.434;2022-07-23T22:31:37;10.75;;;7.22;;
36787;SDS011;22738;45.560;9.434;2022-07-23T22:38:19;17.00;;;7.07;;
36787;SDS011;22738;45.560;9.434;2022-07-23T22:45:00;12.23;;;6.38;;
36787;SDS011;22738;45.560;9.434;2022-07-23T22:51:41;10.82;;;7.20;;
36787;SDS011;22738;45.560;9.434;2022-07-23T22:58:22;10.05;;;7.18;;
36787;SDS011;22738;45.560;9.434;2022-07-23T23:05:03;9.75;;;7.00;;
36787;SDS011;22738;45.560;9.434;2022-07-23T23:11:45;8.75;;;6.70;;
36787;SDS011;22738;45.560;9.434;2022-07-23T23:18:26;8.93;;;6.97;;
36787;SDS011;22738;45.560;9.434;2022-07-23T23:25:07;11.85;;;6.97;;
36787;SDS011;22738;45.560;9.434;2022-07-23T23:31:48;13.10;;;7.30;;
36787;SDS011;22738;45.560;9.434;2022-07-23T23:38:29;16.33;;;7.80;;
36787;SDS011;22738;45.560;9.434;2022-07-23T23:45:11;8.05;;;6.45;;
36787;SDS011;22738;45.560;9.434;2022-07-23T23:51:52;12.60;;;7.20;;
36787;SDS011;22738;45.560;9.434;2022-07-23T23:58:33;17.42;;;7.45;;
